sensor_id;sensor_type;location;lat;lon;timestamp;pressure;altitude;pressure_sealevel;temperature;humidity
77192;BME280;66172;48.526;8.078;2023-04-25T00:01:32;99004.03;;;9.52;76.15
77192;BME280;66172;48.526;8.078;2023-04-25T00:04:02;98997.81;;;9.52;75.71
77192;BME280;66172;48.526;8.078;2023-04-25T00:06:28;98996.34;;;9.42;75.62
77192;BME280;66172;48.526;8.078;2023-04-25T00:08:55;98993.75;;;9.46;75.53
77192;BME280;66172;48.526;8.078;2023-04-25T00:11:22;98990.88;;;9.54;74.57
77192;BME280;66172;48.526;8.078;2023-04-25T00:13:49;98995.41;;;9.50;73.38
77192;BME280;66172;48.526;8.078;2023-04-25T00:16:16;98993.38;;;9.47;72.91
77192;BME280;66172;48.526;8.078;2023-04-25T00:18:42;98993.16;;;9.52;69.15
77192;BME280;66172;48.526;8.078;2023-04-25T00:21:09;98995.84;;;9.65;74.24
77192;BME280;66172;48.526;8.078;2023-04-25T00:23:35;98986.03;;;9.60;73.86
77192;BME280;66172;48.526;8.078;2023-04-25T00:26:02;98998.81;;;9.60;72.66
77192;BME280;66172;48.526;8.078;2023-04-25T00:28:28;98990.31;;;9.61;73.83
77192;BME280;66172;48.526;8.078;2023-04-25T00:30:54;98989.06;;;9.59;71.78
77192;BME280;66172;48.526;8.078;2023-04-25T00:33:20;98988.75;;;9.60;71.38
77192;BME280;66172;48.526;8.078;2023-04-25T00:35:46;98986.03;;;9.60;69.39
77192;BME280;66172;48.526;8.078;2023-04-25T00:38:12;98988.50;;;9.65;69.05
77192;BME280;66172;48.526;8.078;2023-04-25T00:40:38;98978.84;;;9.68;69.93
77192;BME280;66172;48.526;8.078;2023-04-25T00:43:04;98990.63;;;9.72;68.97
77192;BME280;66172;48.526;8.078;2023-04-25T00:45:30;98986.88;;;9.76;68.60
77192;BME280;66172;48.526;8.078;2023-04-25T00:47:56;98979.97;;;9.79;68.47
77192;BME280;66172;48.526;8.078;2023-04-25T00:50:23;98976.13;;;9.80;69.20
77192;BME280;66172;48.526;8.078;2023-04-25T00:52:49;98969.38;;;9.74;67.27
77192;BME280;66172;48.526;8.078;2023-04-25T00:55:15;98977.16;;;9.75;67.95
77192;BME280;66172;48.526;8.078;2023-04-25T00:57:42;98977.16;;;9.75;67.71
77192;BME280;66172;48.526;8.078;2023-04-25T01:00:09;98976.81;;;9.77;67.96
77192;BME280;66172;48.526;8.078;2023-04-25T01:02:35;98972.63;;;9.79;68.24
77192;BME280;66172;48.526;8.078;2023-04-25T01:05:02;98970.34;;;9.81;68.37
77192;BME280;66172;48.526;8.078;2023-04-25T01:07:28;98969.69;;;9.72;67.52
77192;BME280;66172;48.526;8.078;2023-04-25T01:09:54;98974.44;;;9.75;68.62
77192;BME280;66172;48.526;8.078;2023-04-25T01:12:20;98967.66;;;9.69;66.33
77192;BME280;66172;48.526;8.078;2023-04-25T01:14:46;98977.41;;;9.70;67.10
77192;BME280;66172;48.526;8.078;2023-04-25T01:17:13;98974.91;;;9.77;68.62
77192;BME280;66172;48.526;8.078;2023-04-25T01:19:38;98973.63;;;9.75;70.22
77192;BME280;66172;48.526;8.078;2023-04-25T01:22:05;98963.94;;;9.74;69.80
77192;BME280;66172;48.526;8.078;2023-04-25T01:24:32;98958.28;;;9.67;68.49
77192;BME280;66172;48.526;8.078;2023-04-25T01:26:59;98966.25;;;9.60;67.89
77192;BME280;66172;48.526;8.078;2023-04-25T01:29:27;98972.47;;;9.60;68.89
77192;BME280;66172;48.526;8.078;2023-04-25T01:31:53;98961.59;;;9.60;69.46
77192;BME280;66172;48.526;8.078;2023-04-25T01:34:19;98966.47;;;9.54;69.76
77192;BME280;66172;48.526;8.078;2023-04-25T01:36:48;98962.94;;;9.54;70.93
77192;BME280;66172;48.526;8.078;2023-04-25T01:39:15;98960.69;;;9.56;72.08
77192;BME280;66172;48.526;8.078;2023-04-25T01:41:41;98969.44;;;9.49;72.43
77192;BME280;66172;48.526;8.078;2023-04-25T01:44:07;98963.00;;;9.42;73.93
77192;BME280;66172;48.526;8.078;2023-04-25T01:46:33;98971.56;;;9.44;74.70
77192;BME280;66172;48.526;8.078;2023-04-25T01:48:59;98970.78;;;9.43;75.75
77192;BME280;66172;48.526;8.078;2023-04-25T01:51:25;98967.53;;;9.38;75.32
77192;BME280;66172;48.526;8.078;2023-04-25T01:53:51;98961.44;;;9.17;74.89
77192;BME280;66172;48.526;8.078;2023-04-25T01:56:18;98955.81;;;9.22;75.21
77192;BME280;66172;48.526;8.078;2023-04-25T01:58:45;98963.78;;;9.30;75.20
77192;BME280;66172;48.526;8.078;2023-04-25T02:01:11;98964.34;;;9.36;75.07
77192;BME280;66172;48.526;8.078;2023-04-25T02:03:36;98960.88;;;9.35;75.72
77192;BME280;66172;48.526;8.078;2023-04-25T02:06:02;98962.09;;;9.38;76.26
77192;BME280;66172;48.526;8.078;2023-04-25T02:08:28;98962.09;;;9.38;76.00
77192;BME280;66172;48.526;8.078;2023-04-25T02:10:55;98963.22;;;9.37;75.14
77192;BME280;66172;48.526;8.078;2023-04-25T02:13:21;98962.19;;;9.41;75.00
77192;BME280;66172;48.526;8.078;2023-04-25T02:15:47;98966.50;;;9.42;74.82
77192;BME280;66172;48.526;8.078;2023-04-25T02:18:13;98956.88;;;9.45;74.68
77192;BME280;66172;48.526;8.078;2023-04-25T02:20:42;98958.00;;;9.44;75.96
77192;BME280;66172;48.526;8.078;2023-04-25T02:23:08;98954.06;;;9.41;74.50
77192;BME280;66172;48.526;8.078;2023-04-25T02:25:35;98950.13;;;9.39;74.69
77192;BME280;66172;48.526;8.078;2023-04-25T02:28:00;98960.28;;;9.42;74.78
77192;BME280;66172;48.526;8.078;2023-04-25T02:30:27;98953.03;;;9.46;73.97
77192;BME280;66172;48.526;8.078;2023-04-25T02:32:52;98955.75;;;9.46;74.41
77192;BME280;66172;48.526;8.078;2023-04-25T02:35:18;98958.47;;;9.46;75.19
77192;BME280;66172;48.526;8.078;2023-04-25T02:37:44;98958.47;;;9.46;74.90
77192;BME280;66172;48.526;8.078;2023-04-25T02:40:10;98949.06;;;9.43;75.63
77192;BME280;66172;48.526;8.078;2023-04-25T02:42:36;98948.38;;;9.46;74.07
77192;BME280;66172;48.526;8.078;2023-04-25T02:45:02;98943.41;;;9.48;73.36
77192;BME280;66172;48.526;8.078;2023-04-25T02:47:28;98944.66;;;9.51;73.15
77192;BME280;66172;48.526;8.078;2023-04-25T02:49:54;98941.50;;;9.49;74.35
77192;BME280;66172;48.526;8.078;2023-04-25T02:52:20;98930.53;;;9.45;74.66
77192;BME280;66172;48.526;8.078;2023-04-25T02:54:47;98936.78;;;9.34;73.96
77192;BME280;66172;48.526;8.078;2023-04-25T02:57:12;98935.97;;;9.33;74.85
77192;BME280;66172;48.526;8.078;2023-04-25T02:59:38;98934.38;;;9.32;75.18
77192;BME280;66172;48.526;8.078;2023-04-25T03:02:04;98935.53;;;9.31;74.09
77192;BME280;66172;48.526;8.078;2023-04-25T03:04:30;98937.09;;;9.32;75.08
77192;BME280;66172;48.526;8.078;2023-04-25T03:06:56;98935.19;;;9.33;73.92
77192;BME280;66172;48.526;8.078;2023-04-25T03:09:22;98937.47;;;9.31;74.94
77192;BME280;66172;48.526;8.078;2023-04-25T03:11:48;98931.25;;;9.30;75.49
77192;BME280;66172;48.526;8.078;2023-04-25T03:14:14;98941.66;;;9.28;75.66
77192;BME280;66172;48.526;8.078;2023-04-25T03:16:39;98937.78;;;9.29;75.87
77192;BME280;66172;48.526;8.078;2023-04-25T03:19:06;98935.53;;;9.31;75.56
77192;BME280;66172;48.526;8.078;2023-04-25T03:21:33;98922.78;;;9.32;76.13
77192;BME280;66172;48.526;8.078;2023-04-25T03:24:00;98928.19;;;9.32;77.00
77192;BME280;66172;48.526;8.078;2023-04-25T03:26:26;98929.66;;;9.29;77.58
77192;BME280;66172;48.526;8.078;2023-04-25T03:28:52;98933.06;;;9.26;77.00
77192;BME280;66172;48.526;8.078;2023-04-25T03:31:18;98933.75;;;9.23;77.25
77192;BME280;66172;48.526;8.078;2023-04-25T03:33:44;98934.97;;;9.26;77.72
77192;BME280;66172;48.526;8.078;2023-04-25T03:36:10;98935.13;;;9.17;76.89
77192;BME280;66172;48.526;8.078;2023-04-25T03:38:36;98933.88;;;9.15;76.85
77192;BME280;66172;48.526;8.078;2023-04-25T03:41:02;98925.84;;;8.94;76.67
77192;BME280;66172;48.526;8.078;2023-04-25T03:43:28;98928.91;;;8.80;77.36
77192;BME280;66172;48.526;8.078;2023-04-25T03:45:54;98929.50;;;8.86;77.77
77192;BME280;66172;48.526;8.078;2023-04-25T03:48:20;98928.78;;;9.01;78.04
77192;BME280;66172;48.526;8.078;2023-04-25T03:50:52;98919.44;;;8.74;79.06
77192;BME280;66172;48.526;8.078;2023-04-25T03:53:18;98919.00;;;8.72;78.31
77192;BME280;66172;48.526;8.078;2023-04-25T03:55:43;98921.25;;;8.58;79.33
77192;BME280;66172;48.526;8.078;2023-04-25T03:58:09;98909.91;;;8.32;81.47
77192;BME280;66172;48.526;8.078;2023-04-25T04:00:35;98901.94;;;8.15;82.64
77192;BME280;66172;48.526;8.078;2023-04-25T04:03:01;98896.06;;;8.00;83.32
77192;BME280;66172;48.526;8.078;2023-04-25T04:05:27;98907.31;;;8.02;82.41
77192;BME280;66172;48.526;8.078;2023-04-25T04:07:54;98898.31;;;8.11;82.38
77192;BME280;66172;48.526;8.078;2023-04-25T04:10:21;98900.66;;;8.33;81.66
77192;BME280;66172;48.526;8.078;2023-04-25T04:12:46;98906.56;;;8.47;81.12
77192;BME280;66172;48.526;8.078;2023-04-25T04:15:13;98908.22;;;8.51;81.31
77192;BME280;66172;48.526;8.078;2023-04-25T04:17:39;98905.88;;;8.62;80.59
77192;BME280;66172;48.526;8.078;2023-04-25T04:20:05;98902.16;;;8.55;81.08
77192;BME280;66172;48.526;8.078;2023-04-25T04:22:32;98898.06;;;8.48;81.68
77192;BME280;66172;48.526;8.078;2023-04-25T04:24:57;98889.97;;;8.61;80.55
77192;BME280;66172;48.526;8.078;2023-04-25T04:27:23;98889.28;;;8.64;80.24
77192;BME280;66172;48.526;8.078;2023-04-25T04:29:49;98890.19;;;8.68;79.97
77192;BME280;66172;48.526;8.078;2023-04-25T04:32:17;98899.22;;;8.60;79.93
77192;BME280;66172;48.526;8.078;2023-04-25T04:34:44;98888.84;;;8.62;79.87
77192;BME280;66172;48.526;8.078;2023-04-25T04:37:10;98887.81;;;8.66;79.39
77192;BME280;66172;48.526;8.078;2023-04-25T04:39:38;98895.72;;;8.71;79.18
77192;BME280;66172;48.526;8.078;2023-04-25T04:42:04;98899.34;;;8.75;78.62
77192;BME280;66172;48.526;8.078;2023-04-25T04:44:30;98910.59;;;9.01;77.30
77192;BME280;66172;48.526;8.078;2023-04-25T04:47:00;98897.50;;;9.03;77.26
77192;BME280;66172;48.526;8.078;2023-04-25T04:49:25;98902.81;;;9.00;77.08
77192;BME280;66172;48.526;8.078;2023-04-25T04:51:52;98906.22;;;8.73;78.99
77192;BME280;66172;48.526;8.078;2023-04-25T04:54:17;98904.34;;;8.16;81.28
77192;BME280;66172;48.526;8.078;2023-04-25T04:56:43;98908.22;;;7.94;81.73
77192;BME280;66172;48.526;8.078;2023-04-25T04:59:09;98904.50;;;7.99;82.49
77192;BME280;66172;48.526;8.078;2023-04-25T05:01:36;98919.78;;;8.16;81.80
77192;BME280;66172;48.526;8.078;2023-04-25T05:04:02;98919.50;;;8.41;80.86
77192;BME280;66172;48.526;8.078;2023-04-25T05:06:29;98914.16;;;8.21;80.67
77192;BME280;66172;48.526;8.078;2023-04-25T05:08:55;98911.75;;;8.07;81.43
77192;BME280;66172;48.526;8.078;2023-04-25T05:11:22;98920.28;;;7.97;79.95
77192;BME280;66172;48.526;8.078;2023-04-25T05:13:50;98910.94;;;7.94;80.54
77192;BME280;66172;48.526;8.078;2023-04-25T05:16:16;98916.47;;;7.98;80.51
77192;BME280;66172;48.526;8.078;2023-04-25T05:18:42;98915.88;;;7.92;80.24
77192;BME280;66172;48.526;8.078;2023-04-25T05:21:08;98918.94;;;7.91;81.04
77192;BME280;66172;48.526;8.078;2023-04-25T05:23:34;98917.28;;;7.98;80.42
77192;BME280;66172;48.526;8.078;2023-04-25T05:26:00;98920.28;;;7.97;80.47
77192;BME280;66172;48.526;8.078;2023-04-25T05:28:26;98918.38;;;7.97;79.81
77192;BME280;66172;48.526;8.078;2023-04-25T05:30:52;98913.28;;;7.96;79.23
77192;BME280;66172;48.526;8.078;2023-04-25T05:33:18;98920.97;;;7.94;80.63
77192;BME280;66172;48.526;8.078;2023-04-25T05:35:44;98915.69;;;7.97;81.64
77192;BME280;66172;48.526;8.078;2023-04-25T05:38:10;98915.13;;;8.37;79.56
77192;BME280;66172;48.526;8.078;2023-04-25T05:40:36;98913.88;;;8.46;79.12
77192;BME280;66172;48.526;8.078;2023-04-25T05:43:02;98920.56;;;8.61;78.50
77192;BME280;66172;48.526;8.078;2023-04-25T05:45:28;98920.09;;;8.47;79.20
77192;BME280;66172;48.526;8.078;2023-04-25T05:47:54;98926.56;;;8.55;79.34
77192;BME280;66172;48.526;8.078;2023-04-25T05:50:20;98924.06;;;8.17;80.18
77192;BME280;66172;48.526;8.078;2023-04-25T05:52:46;98921.22;;;8.01;80.82
77192;BME280;66172;48.526;8.078;2023-04-25T05:55:12;98925.72;;;7.97;81.60
77192;BME280;66172;48.526;8.078;2023-04-25T05:57:39;98937.47;;;8.01;81.86
77192;BME280;66172;48.526;8.078;2023-04-25T06:00:08;98937.03;;;8.11;81.55
77192;BME280;66172;48.526;8.078;2023-04-25T06:02:35;98934.88;;;8.04;81.19
77192;BME280;66172;48.526;8.078;2023-04-25T06:05:01;98933.50;;;7.98;81.64
77192;BME280;66172;48.526;8.078;2023-04-25T06:07:29;98934.41;;;8.02;82.77
77192;BME280;66172;48.526;8.078;2023-04-25T06:09:58;98937.03;;;8.11;81.69
77192;BME280;66172;48.526;8.078;2023-04-25T06:12:25;98946.75;;;8.24;82.17
77192;BME280;66172;48.526;8.078;2023-04-25T06:14:51;98949.66;;;8.40;81.94
77192;BME280;66172;48.526;8.078;2023-04-25T06:17:17;98948.44;;;8.49;81.67
77192;BME280;66172;48.526;8.078;2023-04-25T06:19:43;98961.78;;;8.55;81.99
77192;BME280;66172;48.526;8.078;2023-04-25T06:22:09;98958.84;;;8.60;81.88
77192;BME280;66172;48.526;8.078;2023-04-25T06:24:35;98961.66;;;8.63;82.57
77192;BME280;66172;48.526;8.078;2023-04-25T06:27:01;98966.41;;;8.66;82.80
77192;BME280;66172;48.526;8.078;2023-04-25T06:29:27;98964.16;;;8.68;83.29
77192;BME280;66172;48.526;8.078;2023-04-25T06:31:53;98974.53;;;8.66;82.47
77192;BME280;66172;48.526;8.078;2023-04-25T06:34:19;98968.66;;;8.64;82.50
77192;BME280;66172;48.526;8.078;2023-04-25T06:36:44;98969.66;;;8.60;82.44
77192;BME280;66172;48.526;8.078;2023-04-25T06:39:10;98974.53;;;8.54;82.37
77192;BME280;66172;48.526;8.078;2023-04-25T06:41:36;98976.09;;;8.55;82.75
77192;BME280;66172;48.526;8.078;2023-04-25T06:44:02;98981.88;;;8.53;83.01
77192;BME280;66172;48.526;8.078;2023-04-25T06:46:28;98984.22;;;8.55;82.56
77192;BME280;66172;48.526;8.078;2023-04-25T06:48:54;98992.78;;;8.45;83.32
77192;BME280;66172;48.526;8.078;2023-04-25T06:51:20;98984.25;;;8.22;83.45
77192;BME280;66172;48.526;8.078;2023-04-25T06:53:46;98984.66;;;8.12;84.05
77192;BME280;66172;48.526;8.078;2023-04-25T06:56:12;98990.81;;;8.00;85.27
77192;BME280;66172;48.526;8.078;2023-04-25T06:58:38;98993.53;;;8.00;84.66
77192;BME280;66172;48.526;8.078;2023-04-25T07:01:04;98995.44;;;8.00;85.18
77192;BME280;66172;48.526;8.078;2023-04-25T07:03:30;99003.44;;;7.96;85.65
77192;BME280;66172;48.526;8.078;2023-04-25T07:05:56;99012.03;;;7.98;86.35
77192;BME280;66172;48.526;8.078;2023-04-25T07:08:22;99009.44;;;8.02;85.73
77192;BME280;66172;48.526;8.078;2023-04-25T07:10:47;99019.22;;;7.94;86.08
77192;BME280;66172;48.526;8.078;2023-04-25T07:13:13;99018.75;;;7.92;85.85
77192;BME280;66172;48.526;8.078;2023-04-25T07:15:39;99023.84;;;7.94;86.17
77192;BME280;66172;48.526;8.078;2023-04-25T07:18:05;99022.59;;;7.91;86.00
77192;BME280;66172;48.526;8.078;2023-04-25T07:20:31;99027.34;;;7.94;85.62
77192;BME280;66172;48.526;8.078;2023-04-25T07:22:58;99035.59;;;7.77;86.59
77192;BME280;66172;48.526;8.078;2023-04-25T07:25:24;99044.31;;;7.83;87.12
77192;BME280;66172;48.526;8.078;2023-04-25T07:27:50;99045.16;;;7.75;86.54
77192;BME280;66172;48.526;8.078;2023-04-25T07:30:16;99053.00;;;7.88;85.60
77192;BME280;66172;48.526;8.078;2023-04-25T07:32:42;99054.00;;;7.84;85.70
77192;BME280;66172;48.526;8.078;2023-04-25T07:35:08;99065.28;;;7.86;86.09
77192;BME280;66172;48.526;8.078;2023-04-25T07:37:35;99064.34;;;7.61;84.06
77192;BME280;66172;48.526;8.078;2023-04-25T07:40:02;99077.13;;;7.52;83.67
77192;BME280;66172;48.526;8.078;2023-04-25T07:42:29;99081.75;;;7.51;83.86
77192;BME280;66172;48.526;8.078;2023-04-25T07:44:56;99082.41;;;7.48;83.94
77192;BME280;66172;48.526;8.078;2023-04-25T07:47:21;99090.09;;;7.38;83.92
77192;BME280;66172;48.526;8.078;2023-04-25T07:49:47;99094.84;;;7.41;83.41
77192;BME280;66172;48.526;8.078;2023-04-25T07:52:14;99099.84;;;7.30;82.26
77192;BME280;66172;48.526;8.078;2023-04-25T07:54:40;99108.78;;;7.22;79.36
77192;BME280;66172;48.526;8.078;2023-04-25T07:57:05;99119.94;;;7.21;78.47
77192;BME280;66172;48.526;8.078;2023-04-25T07:59:32;99119.44;;;7.19;80.01
77192;BME280;66172;48.526;8.078;2023-04-25T08:01:58;99129.75;;;7.25;80.94
77192;BME280;66172;48.526;8.078;2023-04-25T08:04:24;99126.81;;;7.39;80.68
77192;BME280;66172;48.526;8.078;2023-04-25T08:06:51;99135.38;;;7.49;80.13
77192;BME280;66172;48.526;8.078;2023-04-25T08:09:19;99141.91;;;7.48;79.29
77192;BME280;66172;48.526;8.078;2023-04-25T08:11:46;99158.16;;;7.48;80.30
77192;BME280;66172;48.526;8.078;2023-04-25T08:14:12;99151.06;;;7.27;79.30
77192;BME280;66172;48.526;8.078;2023-04-25T08:16:39;99159.50;;;7.25;77.00
77192;BME280;66172;48.526;8.078;2023-04-25T08:19:05;99157.00;;;7.12;76.23
77192;BME280;66172;48.526;8.078;2023-04-25T08:21:31;99161.38;;;7.33;78.24
77192;BME280;66172;48.526;8.078;2023-04-25T08:23:58;99171.53;;;7.45;77.64
77192;BME280;66172;48.526;8.078;2023-04-25T08:26:24;99175.41;;;7.65;77.95
77192;BME280;66172;48.526;8.078;2023-04-25T08:28:50;99180.28;;;7.80;79.09
77192;BME280;66172;48.526;8.078;2023-04-25T08:31:17;99180.09;;;7.85;78.36
77192;BME280;66172;48.526;8.078;2023-04-25T08:33:43;99192.75;;;7.72;77.82
77192;BME280;66172;48.526;8.078;2023-04-25T08:36:10;99205.00;;;7.70;77.51
77192;BME280;66172;48.526;8.078;2023-04-25T08:38:36;99194.91;;;7.87;75.37
77192;BME280;66172;48.526;8.078;2023-04-25T08:41:03;99199.59;;;7.99;77.27
77192;BME280;66172;48.526;8.078;2023-04-25T08:43:29;99205.50;;;8.01;76.20
77192;BME280;66172;48.526;8.078;2023-04-25T08:45:59;99205.66;;;7.96;76.50
77192;BME280;66172;48.526;8.078;2023-04-25T08:48:32;99204.56;;;7.97;75.64
77192;BME280;66172;48.526;8.078;2023-04-25T08:50:58;99218.50;;;8.08;73.67
77192;BME280;66172;48.526;8.078;2023-04-25T08:53:27;99219.97;;;8.05;77.05
77192;BME280;66172;48.526;8.078;2023-04-25T08:55:55;99221.69;;;8.10;76.23
77192;BME280;66172;48.526;8.078;2023-04-25T08:58:21;99224.75;;;7.99;74.15
77192;BME280;66172;48.526;8.078;2023-04-25T09:00:47;99231.66;;;7.88;76.37
77192;BME280;66172;48.526;8.078;2023-04-25T09:03:13;99232.38;;;7.77;75.76
77192;BME280;66172;48.526;8.078;2023-04-25T09:05:41;99229.66;;;7.77;75.52
77192;BME280;66172;48.526;8.078;2023-04-25T09:08:07;99235.50;;;7.41;75.88
77192;BME280;66172;48.526;8.078;2023-04-25T09:10:34;99237.00;;;7.13;79.36
77192;BME280;66172;48.526;8.078;2023-04-25T09:13:14;99242.56;;;7.16;79.88
77192;BME280;66172;48.526;8.078;2023-04-25T09:15:54;99241.94;;;7.11;80.31
77192;BME280;66172;48.526;8.078;2023-04-25T09:18:29;99254.31;;;7.20;79.50
77192;BME280;66172;48.526;8.078;2023-04-25T09:20:58;99251.97;;;7.10;79.07
77192;BME280;66172;48.526;8.078;2023-04-25T09:23:30;99264.53;;;6.72;80.58
77192;BME280;66172;48.526;8.078;2023-04-25T09:25:58;99263.56;;;6.68;81.07
77192;BME280;66172;48.526;8.078;2023-04-25T09:28:25;99257.03;;;6.69;79.22
77192;BME280;66172;48.526;8.078;2023-04-25T09:30:56;99264.22;;;6.65;80.35
77192;BME280;66172;48.526;8.078;2023-04-25T09:33:29;99267.81;;;6.43;81.27
77192;BME280;66172;48.526;8.078;2023-04-25T09:36:02;99260.53;;;6.61;81.59
77192;BME280;66172;48.526;8.078;2023-04-25T09:38:30;99272.00;;;6.58;80.12
77192;BME280;66172;48.526;8.078;2023-04-25T09:40:56;99264.78;;;6.44;80.83
77192;BME280;66172;48.526;8.078;2023-04-25T09:43:24;99264.38;;;6.68;81.47
77192;BME280;66172;48.526;8.078;2023-04-25T09:45:51;99261.63;;;6.42;80.36
77192;BME280;66172;48.526;8.078;2023-04-25T09:48:21;99260.94;;;6.20;81.76
77192;BME280;66172;48.526;8.078;2023-04-25T09:51:10;99269.81;;;6.20;83.93
77192;BME280;66172;48.526;8.078;2023-04-25T09:53:45;99265.34;;;6.07;83.60
77192;BME280;66172;48.526;8.078;2023-04-25T09:56:23;99276.03;;;6.21;82.27
77192;BME280;66172;48.526;8.078;2023-04-25T09:58:52;99278.91;;;6.24;81.86
77192;BME280;66172;48.526;8.078;2023-04-25T10:01:21;99284.88;;;6.13;81.40
77192;BME280;66172;48.526;8.078;2023-04-25T10:03:50;99278.03;;;5.98;82.39
77192;BME280;66172;48.526;8.078;2023-04-25T10:06:25;99282.13;;;5.95;80.79
77192;BME280;66172;48.526;8.078;2023-04-25T10:08:52;99280.75;;;5.76;81.15
77192;BME280;66172;48.526;8.078;2023-04-25T10:11:20;99291.31;;;5.86;80.87
77192;BME280;66172;48.526;8.078;2023-04-25T10:13:48;99287.75;;;5.77;81.33
77192;BME280;66172;48.526;8.078;2023-04-25T10:16:15;99292.66;;;5.75;81.46
77192;BME280;66172;48.526;8.078;2023-04-25T10:18:41;99289.06;;;5.88;83.27
77192;BME280;66172;48.526;8.078;2023-04-25T10:21:07;99288.66;;;5.94;83.30
77192;BME280;66172;48.526;8.078;2023-04-25T10:23:34;99298.81;;;5.97;83.82
77192;BME280;66172;48.526;8.078;2023-04-25T10:26:01;99307.00;;;6.23;82.81
77192;BME280;66172;48.526;8.078;2023-04-25T10:28:27;99297.38;;;6.39;80.76
77192;BME280;66172;48.526;8.078;2023-04-25T10:31:00;99304.63;;;6.30;80.94
77192;BME280;66172;48.526;8.078;2023-04-25T10:33:36;99290.66;;;6.37;81.19
77192;BME280;66172;48.526;8.078;2023-04-25T10:36:14;99293.69;;;6.44;80.46
77192;BME280;66172;48.526;8.078;2023-04-25T10:41:21;99287.56;;;6.78;80.28
77192;BME280;66172;48.526;8.078;2023-04-25T10:43:49;99284.47;;;7.57;77.55
77192;BME280;66172;48.526;8.078;2023-04-25T10:46:23;99288.41;;;7.68;77.83
77192;BME280;66172;48.526;8.078;2023-04-25T10:48:54;99288.97;;;7.44;76.31
77192;BME280;66172;48.526;8.078;2023-04-25T10:51:27;99281.84;;;7.31;78.67
77192;BME280;66172;48.526;8.078;2023-04-25T10:56:27;99293.78;;;7.85;76.94
77192;BME280;66172;48.526;8.078;2023-04-25T10:59:20;99296.94;;;7.23;77.31
77192;BME280;66172;48.526;8.078;2023-04-25T11:01:53;99289.13;;;7.39;78.79
77192;BME280;66172;48.526;8.078;2023-04-25T11:09:38;99291.56;;;8.54;74.55
77192;BME280;66172;48.526;8.078;2023-04-25T11:12:08;99296.47;;;7.85;75.49
77192;BME280;66172;48.526;8.078;2023-04-25T11:14:34;99288.25;;;8.11;75.04
77192;BME280;66172;48.526;8.078;2023-04-25T11:17:00;99284.16;;;8.04;75.36
77192;BME280;66172;48.526;8.078;2023-04-25T11:19:29;99296.75;;;8.00;76.21
77192;BME280;66172;48.526;8.078;2023-04-25T11:21:59;99296.84;;;7.75;75.75
77192;BME280;66172;48.526;8.078;2023-04-25T11:24:27;99309.41;;;7.71;76.20
77192;BME280;66172;48.526;8.078;2023-04-25T11:26:53;99301.78;;;7.73;77.11
77192;BME280;66172;48.526;8.078;2023-04-25T11:29:22;99303.44;;;7.48;77.24
77192;BME280;66172;48.526;8.078;2023-04-25T11:31:48;99300.09;;;7.51;77.48
77192;BME280;66172;48.526;8.078;2023-04-25T11:34:20;99292.13;;;7.46;77.71
77192;BME280;66172;48.526;8.078;2023-04-25T11:36:46;99289.41;;;7.63;77.93
77192;BME280;66172;48.526;8.078;2023-04-25T11:39:12;99299.69;;;7.87;77.71
77192;BME280;66172;48.526;8.078;2023-04-25T11:41:41;99291.84;;;7.94;77.82
77192;BME280;66172;48.526;8.078;2023-04-25T11:44:07;99291.63;;;8.45;76.76
77192;BME280;66172;48.526;8.078;2023-04-25T11:46:36;99290.88;;;8.86;75.17
77192;BME280;66172;48.526;8.078;2023-04-25T11:49:02;99292.44;;;8.87;75.22
77192;BME280;66172;48.526;8.078;2023-04-25T11:51:29;99289.41;;;8.68;74.04
77192;BME280;66172;48.526;8.078;2023-04-25T11:53:55;99285.41;;;8.45;76.74
77192;BME280;66172;48.526;8.078;2023-04-25T11:56:22;99293.09;;;9.05;76.37
77192;BME280;66172;48.526;8.078;2023-04-25T11:59:01;99295.56;;;8.98;75.72
77192;BME280;66172;48.526;8.078;2023-04-25T12:01:34;99294.22;;;8.83;74.87
77192;BME280;66172;48.526;8.078;2023-04-25T12:04:20;99288.16;;;9.40;74.71
77192;BME280;66172;48.526;8.078;2023-04-25T12:06:47;99292.88;;;9.31;75.78
77192;BME280;66172;48.526;8.078;2023-04-25T12:09:15;99288.88;;;10.06;74.71
77192;BME280;66172;48.526;8.078;2023-04-25T12:11:45;99285.59;;;9.88;70.96
77192;BME280;66172;48.526;8.078;2023-04-25T12:14:12;99281.53;;;10.43;70.03
77192;BME280;66172;48.526;8.078;2023-04-25T12:16:46;99286.13;;;9.82;71.84
77192;BME280;66172;48.526;8.078;2023-04-25T12:19:16;99293.06;;;10.03;70.20
77192;BME280;66172;48.526;8.078;2023-04-25T12:21:43;99292.78;;;9.72;70.33
77192;BME280;66172;48.526;8.078;2023-04-25T12:24:18;99293.34;;;9.66;71.30
77192;BME280;66172;48.526;8.078;2023-04-25T12:27:09;99291.97;;;9.72;70.81
77192;BME280;66172;48.526;8.078;2023-04-25T12:29:35;99290.94;;;10.58;69.20
77192;BME280;66172;48.526;8.078;2023-04-25T12:32:01;99289.00;;;11.10;68.84
77192;BME280;66172;48.526;8.078;2023-04-25T12:34:31;99292.63;;;12.01;63.13
77192;BME280;66172;48.526;8.078;2023-04-25T12:36:57;99293.88;;;11.88;64.87
77192;BME280;66172;48.526;8.078;2023-04-25T12:39:24;99295.78;;;12.85;61.76
77192;BME280;66172;48.526;8.078;2023-04-25T12:41:53;99290.59;;;13.53;62.46
77192;BME280;66172;48.526;8.078;2023-04-25T12:44:21;99298.06;;;13.56;59.25
77192;BME280;66172;48.526;8.078;2023-04-25T12:46:47;99296.50;;;13.78;57.48
77192;BME280;66172;48.526;8.078;2023-04-25T12:49:13;99290.25;;;14.23;57.55
77192;BME280;66172;48.526;8.078;2023-04-25T12:51:40;99294.25;;;13.41;58.46
77192;BME280;66172;48.526;8.078;2023-04-25T12:54:07;99292.63;;;13.79;59.20
77192;BME280;66172;48.526;8.078;2023-04-25T12:56:34;99289.84;;;13.98;59.27
77192;BME280;66172;48.526;8.078;2023-04-25T12:59:00;99293.25;;;14.14;57.92
77192;BME280;66172;48.526;8.078;2023-04-25T13:01:29;99295.97;;;13.91;57.19
77192;BME280;66172;48.526;8.078;2023-04-25T13:03:55;99296.91;;;13.57;58.43
77192;BME280;66172;48.526;8.078;2023-04-25T13:06:21;99321.59;;;13.07;60.71
77192;BME280;66172;48.526;8.078;2023-04-25T13:08:48;99346.47;;;12.51;62.87
77192;BME280;66172;48.526;8.078;2023-04-25T13:11:14;99347.97;;;11.06;69.33
77192;BME280;66172;48.526;8.078;2023-04-25T13:13:43;99378.56;;;10.18;72.84
77192;BME280;66172;48.526;8.078;2023-04-25T13:16:10;99397.19;;;9.42;73.97
77192;BME280;66172;48.526;8.078;2023-04-25T13:18:36;99395.31;;;8.92;76.08
77192;BME280;66172;48.526;8.078;2023-04-25T13:21:02;99402.03;;;8.57;78.67